sensor_id;sensor_type;location;lat;lon;timestamp;P1;durP1;ratioP1;P2;durP2;ratioP2
20142;SDS011;10509;46.476;7.134;2023-06-22T00:00:49;10.97;;;4.93;;
20142;SDS011;10509;46.476;7.134;2023-06-22T00:03:15;11.57;;;5.73;;
20142;SDS011;10509;46.476;7.134;2023-06-22T00:05:41;12.00;;;5.73;;
20142;SDS011;10509;46.476;7.134;2023-06-22T00:08:07;12.30;;;5.70;;
20142;SDS011;10509;46.476;7.134;2023-06-22T00:10:33;10.40;;;5.47;;
20142;SDS011;10509;46.476;7.134;2023-06-22T00:12:59;9.63;;;5.00;;
20142;SDS011;10509;46.476;7.134;2023-06-22T00:15:25;15.83;;;5.80;;
20142;SDS011;10509;46.476;7.134;2023-06-22T00:17:51;14.60;;;5.63;;
20142;SDS011;10509;46.476;7.134;2023-06-22T00:20:17;8.33;;;5.17;;
20142;SDS011;10509;46.476;7.134;2023-06-22T00:22:43;9.03;;;5.37;;
20142;SDS011;10509;46.476;7.134;2023-06-22T00:25:09;7.87;;;5.07;;
20142;SDS011;10509;46.476;7.134;2023-06-22T00:27:36;11.63;;;5.47;;
20142;SDS011;10509;46.476;7.134;2023-06-22T00:30:02;8.50;;;5.17;;
20142;SDS011;10509;46.476;7.134;2023-06-22T00:32:28;13.47;;;5.17;;
20142;SDS011;10509;46.476;7.134;2023-06-22T00:34:54;8.50;;;5.77;;
20142;SDS011;10509;46.476;7.134;2023-06-22T00:37:20;13.00;;;5.57;;
20142;SDS011;10509;46.476;7.134;2023-06-22T00:39:50;10.57;;;5.17;;
20142;SDS011;10509;46.476;7.134;2023-06-22T00:42:16;13.90;;;5.20;;
20142;SDS011;10509;46.476;7.134;2023-06-22T00:44:42;9.33;;;4.90;;
20142;SDS011;10509;46.476;7.134;2023-06-22T00:47:09;9.47;;;5.33;;
20142;SDS011;10509;46.476;7.134;2023-06-22T00:49:37;12.23;;;5.87;;
20142;SDS011;10509;46.476;7.134;2023-06-22T00:52:04;10.20;;;5.67;;
20142;SDS011;10509;46.476;7.134;2023-06-22T00:54:34;11.70;;;5.23;;
20142;SDS011;10509;46.476;7.134;2023-06-22T00:57:01;18.97;;;6.10;;
20142;SDS011;10509;46.476;7.134;2023-06-22T00:59:27;12.27;;;5.70;;
20142;SDS011;10509;46.476;7.134;2023-06-22T01:01:54;8.57;;;5.00;;
20142;SDS011;10509;46.476;7.134;2023-06-22T01:04:24;9.87;;;5.40;;
20142;SDS011;10509;46.476;7.134;2023-06-22T01:07:10;11.77;;;5.80;;
20142;SDS011;10509;46.476;7.134;2023-06-22T01:09:48;9.50;;;5.47;;
20142;SDS011;10509;46.476;7.134;2023-06-22T01:12:15;11.47;;;5.50;;
20142;SDS011;10509;46.476;7.134;2023-06-22T01:14:43;9.13;;;5.40;;
20142;SDS011;10509;46.476;7.134;2023-06-22T01:17:13;9.60;;;5.07;;
20142;SDS011;10509;46.476;7.134;2023-06-22T01:19:50;8.40;;;5.10;;
20142;SDS011;10509;46.476;7.134;2023-06-22T01:22:20;13.87;;;5.63;;
20142;SDS011;10509;46.476;7.134;2023-06-22T01:27:40;11.83;;;4.87;;
20142;SDS011;10509;46.476;7.134;2023-06-22T01:30:13;16.67;;;5.57;;
20142;SDS011;10509;46.476;7.134;2023-06-22T01:32:40;14.50;;;5.67;;
20142;SDS011;10509;46.476;7.134;2023-06-22T01:35:07;9.27;;;5.10;;
20142;SDS011;10509;46.476;7.134;2023-06-22T01:37:33;9.50;;;5.90;;
20142;SDS011;10509;46.476;7.134;2023-06-22T01:40:00;11.77;;;5.63;;
20142;SDS011;10509;46.476;7.134;2023-06-22T01:42:27;13.40;;;5.73;;
20142;SDS011;10509;46.476;7.134;2023-06-22T01:44:54;13.90;;;5.50;;
20142;SDS011;10509;46.476;7.134;2023-06-22T01:47:21;9.37;;;5.37;;
20142;SDS011;10509;46.476;7.134;2023-06-22T01:49:48;9.27;;;5.20;;
20142;SDS011;10509;46.476;7.134;2023-06-22T01:52:16;9.57;;;5.30;;
20142;SDS011;10509;46.476;7.134;2023-06-22T01:54:42;11.23;;;5.80;;
20142;SDS011;10509;46.476;7.134;2023-06-22T01:57:08;13.57;;;5.40;;
20142;SDS011;10509;46.476;7.134;2023-06-22T01:59:37;9.17;;;5.20;;
20142;SDS011;10509;46.476;7.134;2023-06-22T02:02:09;15.00;;;5.57;;
20142;SDS011;10509;46.476;7.134;2023-06-22T02:07:09;11.77;;;5.50;;
20142;SDS011;10509;46.476;7.134;2023-06-22T02:09:36;10.27;;;5.03;;
20142;SDS011;10509;46.476;7.134;2023-06-22T02:12:03;6.90;;;5.00;;
20142;SDS011;10509;46.476;7.134;2023-06-22T02:14:30;11.17;;;5.60;;
20142;SDS011;10509;46.476;7.134;2023-06-22T02:16:56;13.13;;;5.10;;
20142;SDS011;10509;46.476;7.134;2023-06-22T02:19:27;8.87;;;5.47;;
20142;SDS011;10509;46.476;7.134;2023-06-22T02:21:53;9.10;;;5.27;;
20142;SDS011;10509;46.476;7.134;2023-06-22T02:24:19;13.63;;;5.77;;
20142;SDS011;10509;46.476;7.134;2023-06-22T02:26:48;7.83;;;5.27;;
20142;SDS011;10509;46.476;7.134;2023-06-22T02:29:14;12.07;;;5.10;;
20142;SDS011;10509;46.476;7.134;2023-06-22T02:31:40;11.23;;;5.33;;
20142;SDS011;10509;46.476;7.134;2023-06-22T02:34:06;11.50;;;4.60;;
20142;SDS011;10509;46.476;7.134;2023-06-22T02:36:32;9.37;;;4.87;;
20142;SDS011;10509;46.476;7.134;2023-06-22T02:38:58;6.37;;;4.67;;
20142;SDS011;10509;46.476;7.134;2023-06-22T02:41:26;8.33;;;5.17;;
20142;SDS011;10509;46.476;7.134;2023-06-22T02:43:52;10.87;;;5.43;;
20142;SDS011;10509;46.476;7.134;2023-06-22T02:46:18;9.90;;;5.30;;
20142;SDS011;10509;46.476;7.134;2023-06-22T02:48:44;9.60;;;5.03;;
20142;SDS011;10509;46.476;7.134;2023-06-22T02:51:10;12.27;;;5.60;;
20142;SDS011;10509;46.476;7.134;2023-06-22T02:53:36;12.40;;;6.40;;
20142;SDS011;10509;46.476;7.134;2023-06-22T02:56:02;10.37;;;5.30;;
20142;SDS011;10509;46.476;7.134;2023-06-22T02:58:31;7.73;;;5.13;;
20142;SDS011;10509;46.476;7.134;2023-06-22T03:01:03;10.20;;;5.47;;
20142;SDS011;10509;46.476;7.134;2023-06-22T03:03:29;9.07;;;5.23;;
20142;SDS011;10509;46.476;7.134;2023-06-22T03:05:55;9.80;;;5.20;;
20142;SDS011;10509;46.476;7.134;2023-06-22T03:08:21;12.07;;;5.57;;
20142;SDS011;10509;46.476;7.134;2023-06-22T03:10:47;7.20;;;4.83;;
20142;SDS011;10509;46.476;7.134;2023-06-22T03:13:13;13.67;;;5.50;;
20142;SDS011;10509;46.476;7.134;2023-06-22T03:15:40;11.80;;;5.80;;
20142;SDS011;10509;46.476;7.134;2023-06-22T03:18:06;13.97;;;5.83;;
20142;SDS011;10509;46.476;7.134;2023-06-22T03:20:32;8.93;;;5.20;;
20142;SDS011;10509;46.476;7.134;2023-06-22T03:22:58;11.23;;;5.47;;
20142;SDS011;10509;46.476;7.134;2023-06-22T03:25:25;10.10;;;5.43;;
20142;SDS011;10509;46.476;7.134;2023-06-22T03:27:51;8.83;;;5.10;;
20142;SDS011;10509;46.476;7.134;2023-06-22T03:30:17;9.20;;;5.37;;
20142;SDS011;10509;46.476;7.134;2023-06-22T03:32:43;10.60;;;5.00;;
20142;SDS011;10509;46.476;7.134;2023-06-22T03:35:09;12.33;;;5.73;;
20142;SDS011;10509;46.476;7.134;2023-06-22T03:37:38;10.73;;;5.00;;
20142;SDS011;10509;46.476;7.134;2023-06-22T03:40:04;7.63;;;5.20;;
20142;SDS011;10509;46.476;7.134;2023-06-22T03:42:30;22.37;;;6.10;;
20142;SDS011;10509;46.476;7.134;2023-06-22T03:44:56;13.37;;;5.13;;
20142;SDS011;10509;46.476;7.134;2023-06-22T03:47:22;12.00;;;5.63;;
20142;SDS011;10509;46.476;7.134;2023-06-22T03:49:48;14.13;;;5.47;;
20142;SDS011;10509;46.476;7.134;2023-06-22T03:52:14;11.83;;;5.40;;
20142;SDS011;10509;46.476;7.134;2023-06-22T03:54:40;7.43;;;4.77;;
20142;SDS011;10509;46.476;7.134;2023-06-22T03:57:06;10.13;;;5.40;;
20142;SDS011;10509;46.476;7.134;2023-06-22T03:59:32;12.50;;;5.60;;
20142;SDS011;10509;46.476;7.134;2023-06-22T04:01:58;10.67;;;5.80;;
20142;SDS011;10509;46.476;7.134;2023-06-22T04:04:24;12.47;;;5.37;;
20142;SDS011;10509;46.476;7.134;2023-06-22T04:06:50;17.40;;;5.70;;
20142;SDS011;10509;46.476;7.134;2023-06-22T04:09:16;8.97;;;5.00;;
20142;SDS011;10509;46.476;7.134;2023-06-22T04:11:42;16.63;;;5.73;;
20142;SDS011;10509;46.476;7.134;2023-06-22T04:14:08;18.70;;;6.17;;
20142;SDS011;10509;46.476;7.134;2023-06-22T04:16:34;8.30;;;4.97;;
20142;SDS011;10509;46.476;7.134;2023-06-22T04:19:00;11.10;;;5.67;;
20142;SDS011;10509;46.476;7.134;2023-06-22T04:21:26;13.90;;;4.80;;
20142;SDS011;10509;46.476;7.134;2023-06-22T04:23:52;9.03;;;5.37;;
20142;SDS011;10509;46.476;7.134;2023-06-22T04:26:18;9.83;;;5.50;;
20142;SDS011;10509;46.476;7.134;2023-06-22T04:28:46;9.23;;;5.63;;
20142;SDS011;10509;46.476;7.134;2023-06-22T04:31:16;10.03;;;5.00;;
20142;SDS011;10509;46.476;7.134;2023-06-22T04:33:42;12.00;;;5.10;;
20142;SDS011;10509;46.476;7.134;2023-06-22T04:36:08;13.93;;;5.67;;
20142;SDS011;10509;46.476;7.134;2023-06-22T04:38:38;12.87;;;5.50;;
20142;SDS011;10509;46.476;7.134;2023-06-22T04:41:04;15.10;;;5.50;;
20142;SDS011;10509;46.476;7.134;2023-06-22T04:43:31;15.83;;;6.13;;
20142;SDS011;10509;46.476;7.134;2023-06-22T04:45:57;13.20;;;5.17;;
20142;SDS011;10509;46.476;7.134;2023-06-22T04:48:28;9.87;;;5.03;;
20142;SDS011;10509;46.476;7.134;2023-06-22T04:50:58;10.70;;;4.87;;
20142;SDS011;10509;46.476;7.134;2023-06-22T04:53:28;14.80;;;5.33;;
20142;SDS011;10509;46.476;7.134;2023-06-22T04:55:54;11.07;;;4.67;;
20142;SDS011;10509;46.476;7.134;2023-06-22T04:58:20;17.70;;;5.00;;
20142;SDS011;10509;46.476;7.134;2023-06-22T05:00:47;12.37;;;4.40;;
20142;SDS011;10509;46.476;7.134;2023-06-22T05:03:13;27.90;;;6.43;;
20142;SDS011;10509;46.476;7.134;2023-06-22T05:05:39;9.17;;;4.73;;
20142;SDS011;10509;46.476;7.134;2023-06-22T05:08:05;10.17;;;5.03;;
20142;SDS011;10509;46.476;7.134;2023-06-22T05:10:32;11.87;;;3.90;;
20142;SDS011;10509;46.476;7.134;2023-06-22T05:12:58;9.10;;;4.10;;
20142;SDS011;10509;46.476;7.134;2023-06-22T05:15:24;11.98;;;4.30;;
20142;SDS011;10509;46.476;7.134;2023-06-22T05:17:55;12.25;;;4.72;;
20142;SDS011;10509;46.476;7.134;2023-06-22T05:20:21;11.27;;;4.30;;
20142;SDS011;10509;46.476;7.134;2023-06-22T05:22:47;15.55;;;4.15;;
20142;SDS011;10509;46.476;7.134;2023-06-22T05:25:13;7.70;;;4.07;;
20142;SDS011;10509;46.476;7.134;2023-06-22T05:27:39;10.55;;;4.38;;
20142;SDS011;10509;46.476;7.134;2023-06-22T05:30:06;9.00;;;3.88;;
20142;SDS011;10509;46.476;7.134;2023-06-22T05:32:32;7.40;;;4.60;;
20142;SDS011;10509;46.476;7.134;2023-06-22T05:34:59;10.10;;;4.67;;
20142;SDS011;10509;46.476;7.134;2023-06-22T05:37:25;12.70;;;4.73;;
20142;SDS011;10509;46.476;7.134;2023-06-22T05:39:51;16.03;;;4.83;;
20142;SDS011;10509;46.476;7.134;2023-06-22T05:42:17;12.73;;;5.10;;
20142;SDS011;10509;46.476;7.134;2023-06-22T05:44:43;11.60;;;4.90;;
20142;SDS011;10509;46.476;7.134;2023-06-22T05:47:09;16.07;;;5.23;;
20142;SDS011;10509;46.476;7.134;2023-06-22T05:49:35;14.73;;;6.57;;
20142;SDS011;10509;46.476;7.134;2023-06-22T05:52:01;11.27;;;5.17;;
20142;SDS011;10509;46.476;7.134;2023-06-22T05:54:27;11.83;;;6.13;;
20142;SDS011;10509;46.476;7.134;2023-06-22T05:56:53;11.27;;;5.87;;
20142;SDS011;10509;46.476;7.134;2023-06-22T05:59:19;22.87;;;5.87;;
20142;SDS011;10509;46.476;7.134;2023-06-22T06:01:45;18.80;;;6.27;;
20142;SDS011;10509;46.476;7.134;2023-06-22T06:04:16;55.70;;;7.37;;
20142;SDS011;10509;46.476;7.134;2023-06-22T06:06:42;23.57;;;5.90;;
20142;SDS011;10509;46.476;7.134;2023-06-22T06:09:08;16.43;;;6.57;;
20142;SDS011;10509;46.476;7.134;2023-06-22T06:11:34;13.63;;;5.23;;
20142;SDS011;10509;46.476;7.134;2023-06-22T06:14:00;13.27;;;5.50;;
20142;SDS011;10509;46.476;7.134;2023-06-22T06:16:26;12.77;;;5.30;;
20142;SDS011;10509;46.476;7.134;2023-06-22T06:18:52;10.00;;;4.97;;
20142;SDS011;10509;46.476;7.134;2023-06-22T06:21:20;18.97;;;5.50;;
20142;SDS011;10509;46.476;7.134;2023-06-22T06:23:46;16.23;;;5.20;;
20142;SDS011;10509;46.476;7.134;2023-06-22T06:26:12;14.63;;;5.10;;
20142;SDS011;10509;46.476;7.134;2023-06-22T06:28:41;18.97;;;6.27;;
20142;SDS011;10509;46.476;7.134;2023-06-22T06:31:07;12.70;;;5.30;;
20142;SDS011;10509;46.476;7.134;2023-06-22T06:33:33;12.17;;;4.77;;
20142;SDS011;10509;46.476;7.134;2023-06-22T06:36:00;16.17;;;5.50;;
20142;SDS011;10509;46.476;7.134;2023-06-22T06:38:28;13.97;;;4.80;;
20142;SDS011;10509;46.476;7.134;2023-06-22T06:40:54;10.23;;;4.73;;
20142;SDS011;10509;46.476;7.134;2023-06-22T06:43:20;14.23;;;4.83;;
20142;SDS011;10509;46.476;7.134;2023-06-22T06:45:46;13.85;;;5.03;;
20142;SDS011;10509;46.476;7.134;2023-06-22T06:48:12;11.17;;;4.13;;
20142;SDS011;10509;46.476;7.134;2023-06-22T06:50:38;25.17;;;6.77;;
20142;SDS011;10509;46.476;7.134;2023-06-22T06:53:04;15.90;;;5.53;;
20142;SDS011;10509;46.476;7.134;2023-06-22T06:55:31;16.38;;;5.45;;
20142;SDS011;10509;46.476;7.134;2023-06-22T06:57:58;9.57;;;4.47;;
20142;SDS011;10509;46.476;7.134;2023-06-22T07:00:24;10.25;;;5.50;;
20142;SDS011;10509;46.476;7.134;2023-06-22T07:02:51;11.95;;;5.38;;
20142;SDS011;10509;46.476;7.134;2023-06-22T07:05:17;15.82;;;5.13;;
20142;SDS011;10509;46.476;7.134;2023-06-22T07:07:43;12.30;;;5.25;;
20142;SDS011;10509;46.476;7.134;2023-06-22T07:10:09;15.68;;;4.93;;
20142;SDS011;10509;46.476;7.134;2023-06-22T07:12:35;16.92;;;5.25;;
20142;SDS011;10509;46.476;7.134;2023-06-22T07:15:05;14.38;;;5.18;;
20142;SDS011;10509;46.476;7.134;2023-06-22T07:17:38;12.65;;;4.60;;
20142;SDS011;10509;46.476;7.134;2023-06-22T07:20:06;10.55;;;5.20;;
20142;SDS011;10509;46.476;7.134;2023-06-22T07:22:36;12.70;;;5.28;;
20142;SDS011;10509;46.476;7.134;2023-06-22T07:25:03;10.70;;;4.90;;
20142;SDS011;10509;46.476;7.134;2023-06-22T07:27:34;30.23;;;6.10;;
20142;SDS011;10509;46.476;7.134;2023-06-22T07:30:01;16.67;;;4.93;;
20142;SDS011;10509;46.476;7.134;2023-06-22T07:32:27;16.52;;;5.18;;
20142;SDS011;10509;46.476;7.134;2023-06-22T07:34:53;13.57;;;5.27;;
20142;SDS011;10509;46.476;7.134;2023-06-22T07:37:20;13.30;;;4.70;;
20142;SDS011;10509;46.476;7.134;2023-06-22T07:39:46;15.95;;;5.03;;
20142;SDS011;10509;46.476;7.134;2023-06-22T07:42:12;12.98;;;4.97;;
20142;SDS011;10509;46.476;7.134;2023-06-22T07:44:38;10.23;;;4.60;;
20142;SDS011;10509;46.476;7.134;2023-06-22T07:47:04;20.27;;;5.25;;
20142;SDS011;10509;46.476;7.134;2023-06-22T07:49:30;8.52;;;4.85;;
20142;SDS011;10509;46.476;7.134;2023-06-22T07:51:56;13.90;;;4.75;;
20142;SDS011;10509;46.476;7.134;2023-06-22T07:54:22;12.52;;;5.60;;
20142;SDS011;10509;46.476;7.134;2023-06-22T07:56:48;19.60;;;6.10;;
20142;SDS011;10509;46.476;7.134;2023-06-22T07:59:14;10.88;;;5.13;;
20142;SDS011;10509;46.476;7.134;2023-06-22T08:01:40;14.30;;;5.13;;
20142;SDS011;10509;46.476;7.134;2023-06-22T08:04:06;15.77;;;5.18;;
20142;SDS011;10509;46.476;7.134;2023-06-22T08:06:33;8.10;;;4.72;;
20142;SDS011;10509;46.476;7.134;2023-06-22T08:08:59;16.60;;;4.83;;
20142;SDS011;10509;46.476;7.134;2023-06-22T08:11:25;11.25;;;5.30;;
20142;SDS011;10509;46.476;7.134;2023-06-22T08:13:52;7.53;;;4.65;;
20142;SDS011;10509;46.476;7.134;2023-06-22T08:16:20;14.32;;;5.40;;
20142;SDS011;10509;46.476;7.134;2023-06-22T08:18:46;13.25;;;5.60;;
20142;SDS011;10509;46.476;7.134;2023-06-22T08:21:12;16.15;;;7.40;;
20142;SDS011;10509;46.476;7.134;2023-06-22T08:23:38;14.93;;;7.00;;
20142;SDS011;10509;46.476;7.134;2023-06-22T08:26:04;17.35;;;7.13;;
20142;SDS011;10509;46.476;7.134;2023-06-22T08:28:30;16.75;;;6.32;;
20142;SDS011;10509;46.476;7.134;2023-06-22T08:30:56;16.98;;;5.97;;
20142;SDS011;10509;46.476;7.134;2023-06-22T08:33:23;12.25;;;5.95;;
20142;SDS011;10509;46.476;7.134;2023-06-22T08:35:54;13.80;;;6.35;;
20142;SDS011;10509;46.476;7.134;2023-06-22T08:38:20;17.10;;;7.65;;
20142;SDS011;10509;46.476;7.134;2023-06-22T08:40:46;18.58;;;5.93;;
20142;SDS011;10509;46.476;7.134;2023-06-22T08:43:12;8.82;;;4.82;;
20142;SDS011;10509;46.476;7.134;2023-06-22T08:45:38;18.17;;;4.68;;
20142;SDS011;10509;46.476;7.134;2023-06-22T08:48:04;9.30;;;4.57;;
20142;SDS011;10509;46.476;7.134;2023-06-22T08:50:30;13.48;;;5.13;;
20142;SDS011;10509;46.476;7.134;2023-06-22T08:52:56;16.02;;;5.15;;
20142;SDS011;10509;46.476;7.134;2023-06-22T08:55:22;33.78;;;5.70;;
20142;SDS011;10509;46.476;7.134;2023-06-22T08:57:48;11.68;;;4.85;;
20142;SDS011;10509;46.476;7.134;2023-06-22T09:00:14;11.63;;;4.15;;
20142;SDS011;10509;46.476;7.134;2023-06-22T09:02:42;10.85;;;4.68;;
20142;SDS011;10509;46.476;7.134;2023-06-22T09:05:08;10.40;;;5.03;;
20142;SDS011;10509;46.476;7.134;2023-06-22T09:07:34;14.90;;;5.03;;
20142;SDS011;10509;46.476;7.134;2023-06-22T09:10:01;15.57;;;4.85;;
20142;SDS011;10509;46.476;7.134;2023-06-22T09:12:29;11.65;;;4.50;;
20142;SDS011;10509;46.476;7.134;2023-06-22T09:14:55;16.13;;;5.68;;
20142;SDS011;10509;46.476;7.134;2023-06-22T09:17:22;14.88;;;5.15;;
20142;SDS011;10509;46.476;7.134;2023-06-22T09:19:48;10.27;;;5.70;;
20142;SDS011;10509;46.476;7.134;2023-06-22T09:22:14;12.77;;;5.57;;
20142;SDS011;10509;46.476;7.134;2023-06-22T09:24:40;11.68;;;4.80;;
20142;SDS011;10509;46.476;7.134;2023-06-22T09:27:06;14.68;;;5.60;;
20142;SDS011;10509;46.476;7.134;2023-06-22T09:29:32;15.13;;;5.30;;
20142;SDS011;10509;46.476;7.134;2023-06-22T09:32:01;10.48;;;5.80;;
20142;SDS011;10509;46.476;7.134;2023-06-22T09:34:31;15.88;;;5.32;;
20142;SDS011;10509;46.476;7.134;2023-06-22T09:37:03;13.82;;;5.53;;
20142;SDS011;10509;46.476;7.134;2023-06-22T09:39:29;14.23;;;5.30;;
20142;SDS011;10509;46.476;7.134;2023-06-22T09:41:55;19.58;;;5.63;;
20142;SDS011;10509;46.476;7.134;2023-06-22T09:44:21;17.88;;;6.05;;
20142;SDS011;10509;46.476;7.134;2023-06-22T09:46:47;13.30;;;5.20;;
20142;SDS011;10509;46.476;7.134;2023-06-22T09:49:13;12.43;;;5.45;;
20142;SDS011;10509;46.476;7.134;2023-06-22T09:51:39;17.38;;;5.68;;
20142;SDS011;10509;46.476;7.134;2023-06-22T09:54:05;12.60;;;5.10;;
20142;SDS011;10509;46.476;7.134;2023-06-22T09:56:31;13.23;;;4.35;;
20142;SDS011;10509;46.476;7.134;2023-06-22T09:58:57;11.38;;;3.83;;
20142;SDS011;10509;46.476;7.134;2023-06-22T10:01:23;10.73;;;4.30;;
20142;SDS011;10509;46.476;7.134;2023-06-22T10:03:49;11.40;;;4.22;;
20142;SDS011;10509;46.476;7.134;2023-06-22T10:06:15;10.88;;;4.15;;
20142;SDS011;10509;46.476;7.134;2023-06-22T10:08:41;10.85;;;3.92;;
20142;SDS011;10509;46.476;7.134;2023-06-22T10:11:07;9.18;;;3.47;;
20142;SDS011;10509;46.476;7.134;2023-06-22T10:13:33;10.07;;;3.72;;
20142;SDS011;10509;46.476;7.134;2023-06-22T10:15:59;10.80;;;3.30;;
20142;SDS011;10509;46.476;7.134;2023-06-22T10:18:25;13.23;;;3.45;;
20142;SDS011;10509;46.476;7.134;2023-06-22T10:20:52;11.55;;;3.20;;
20142;SDS011;10509;46.476;7.134;2023-06-22T10:23:18;12.35;;;3.25;;
20142;SDS011;10509;46.476;7.134;2023-06-22T10:25:44;8.20;;;3.45;;
20142;SDS011;10509;46.476;7.134;2023-06-22T10:28:10;7.85;;;3.45;;
20142;SDS011;10509;46.476;7.134;2023-06-22T10:30:37;10.82;;;3.15;;
20142;SDS011;10509;46.476;7.134;2023-06-22T10:33:06;7.00;;;2.92;;
20142;SDS011;10509;46.476;7.134;2023-06-22T10:35:32;10.00;;;2.65;;
20142;SDS011;10509;46.476;7.134;2023-06-22T10:37:58;9.00;;;3.38;;
20142;SDS011;10509;46.476;7.134;2023-06-22T10:40:24;11.80;;;2.80;;
20142;SDS011;10509;46.476;7.134;2023-06-22T10:42:50;8.70;;;2.35;;
20142;SDS011;10509;46.476;7.134;2023-06-22T10:45:16;10.60;;;2.80;;
20142;SDS011;10509;46.476;7.134;2023-06-22T10:47:42;8.80;;;3.10;;
20142;SDS011;10509;46.476;7.134;2023-06-22T10:50:08;10.38;;;2.95;;
20142;SDS011;10509;46.476;7.134;2023-06-22T10:52:34;10.02;;;2.38;;
20142;SDS011;10509;46.476;7.134;2023-06-22T10:55:00;9.00;;;3.20;;
20142;SDS011;10509;46.476;7.134;2023-06-22T10:57:26;9.05;;;2.97;;
20142;SDS011;10509;46.476;7.134;2023-06-22T10:59:52;9.10;;;2.70;;
20142;SDS011;10509;46.476;7.134;2023-06-22T11:02:18;9.50;;;2.13;;
20142;SDS011;10509;46.476;7.134;2023-06-22T11:04:44;8.85;;;2.03;;
20142;SDS011;10509;46.476;7.134;2023-06-22T11:07:11;9.43;;;2.28;;
20142;SDS011;10509;46.476;7.134;2023-06-22T11:09:37;4.55;;;1.83;;
20142;SDS011;10509;46.476;7.134;2023-06-22T11:12:04;6.18;;;1.92;;
20142;SDS011;10509;46.476;7.134;2023-06-22T11:14:30;7.82;;;2.38;;
20142;SDS011;10509;46.476;7.134;2023-06-22T11:16:58;7.38;;;2.65;;
20142;SDS011;10509;46.476;7.134;2023-06-22T11:19:24;8.55;;;2.35;;
20142;SDS011;10509;46.476;7.134;2023-06-22T11:21:50;9.77;;;2.45;;
20142;SDS011;10509;46.476;7.134;2023-06-22T11:24:16;9.57;;;2.53;;
20142;SDS011;10509;46.476;7.134;2023-06-22T11:26:42;7.75;;;2.63;;
20142;SDS011;10509;46.476;7.134;2023-06-22T11:29:08;8.05;;;2.03;;
20142;SDS011;10509;46.476;7.134;2023-06-22T11:31:35;9.07;;;2.75;;
20142;SDS011;10509;46.476;7.134;2023-06-22T11:34:02;8.63;;;2.13;;
20142;SDS011;10509;46.476;7.134;2023-06-22T11:36:29;7.80;;;1.90;;
20142;SDS011;10509;46.476;7.134;2023-06-22T11:38:58;7.18;;;1.85;;
20142;SDS011;10509;46.476;7.134;2023-06-22T11:41:24;15.15;;;2.40;;
20142;SDS011;10509;46.476;7.134;2023-06-22T11:43:50;8.68;;;2.22;;
20142;SDS011;10509;46.476;7.134;2023-06-22T11:46:16;4.95;;;1.70;;
20142;SDS011;10509;46.476;7.134;2023-06-22T11:48:42;6.82;;;2.03;;
20142;SDS011;10509;46.476;7.134;2023-06-22T11:51:08;6.45;;;2.33;;
20142;SDS011;10509;46.476;7.134;2023-06-22T11:53:34;14.45;;;2.72;;
20142;SDS011;10509;46.476;7.134;2023-06-22T11:56:00;8.27;;;2.45;;
20142;SDS011;10509;46.476;7.134;2023-06-22T11:58:26;10.25;;;2.70;;
20142;SDS011;10509;46.476;7.134;2023-06-22T12:00:53;8.07;;;2.55;;
20142;SDS011;10509;46.476;7.134;2023-06-22T12:03:19;10.48;;;2.67;;
20142;SDS011;10509;46.476;7.134;2023-06-22T12:05:49;9.40;;;3.38;;
20142;SDS011;10509;46.476;7.134;2023-06-22T12:08:16;8.45;;;2.58;;
20142;SDS011;10509;46.476;7.134;2023-06-22T12:10:42;16.20;;;3.13;;
20142;SDS011;10509;46.476;7.134;2023-06-22T12:13:08;10.73;;;2.40;;
20142;SDS011;10509;46.476;7.134;2023-06-22T12:15:34;7.55;;;1.95;;
20142;SDS011;10509;46.476;7.134;2023-06-22T12:18:00;13.77;;;2.47;;
20142;SDS011;10509;46.476;7.134;2023-06-22T12:20:26;6.78;;;2.30;;
20142;SDS011;10509;46.476;7.134;2023-06-22T12:22:52;10.70;;;2.53;;
20142;SDS011;10509;46.476;7.134;2023-06-22T12:25:20;10.75;;;2.10;;
20142;SDS011;10509;46.476;7.134;2023-06-22T12:27:46;12.15;;;2.58;;
20142;SDS011;10509;46.476;7.134;2023-06-22T12:30:12;8.98;;;2.75;;
20142;SDS011;10509;46.476;7.134;2023-06-22T12:32:38;7.30;;;2.50;;
20142;SDS011;10509;46.476;7.134;2023-06-22T12:35:04;10.73;;;2.50;;
20142;SDS011;10509;46.476;7.134;2023-06-22T12:37:32;7.07;;;1.88;;
20142;SDS011;10509;46.476;7.134;2023-06-22T12:39:58;6.53;;;1.90;;
20142;SDS011;10509;46.476;7.134;2023-06-22T12:42:24;6.60;;;1.98;;
20142;SDS011;10509;46.476;7.134;2023-06-22T12:44:53;7.63;;;1.92;;
20142;SDS011;10509;46.476;7.134;2023-06-22T12:47:19;5.97;;;2.13;;
20142;SDS011;10509;46.476;7.134;2023-06-22T12:49:45;5.75;;;1.80;;
20142;SDS011;10509;46.476;7.134;2023-06-22T12:52:11;5.50;;;1.95;;
20142;SDS011;10509;46.476;7.134;2023-06-22T12:54:37;5.30;;;1.83;;
20142;SDS011;10509;46.476;7.134;2023-06-22T12:57:03;6.05;;;1.95;;
20142;SDS011;10509;46.476;7.134;2023-06-22T12:59:29;8.35;;;2.13;;
20142;SDS011;10509;46.476;7.134;2023-06-22T13:01:55;7.10;;;2.47;;
20142;SDS011;10509;46.476;7.134;2023-06-22T13:04:21;5.47;;;2.42;;
20142;SDS011;10509;46.476;7.134;2023-06-22T13:06:47;5.55;;;2.40;;
20142;SDS011;10509;46.476;7.134;2023-06-22T13:09:14;8.80;;;2.72;;
20142;SDS011;10509;46.476;7.134;2023-06-22T13:11:40;5.00;;;2.00;;
20142;SDS011;10509;46.476;7.134;2023-06-22T13:14:06;6.28;;;2.30;;
20142;SDS011;10509;46.476;7.134;2023-06-22T13:16:32;14.95;;;3.90;;
20142;SDS011;10509;46.476;7.134;2023-06-22T13:18:58;6.68;;;2.30;;
20142;SDS011;10509;46.476;7.134;2023-06-22T13:21:24;6.07;;;2.38;;
20142;SDS011;10509;46.476;7.134;2023-06-22T13:23:50;7.45;;;3.13;;
20142;SDS011;10509;46.476;7.134;2023-06-22T13:26:16;6.72;;;2.40;;
20142;SDS011;10509;46.476;7.134;2023-06-22T13:28:42;5.65;;;2.50;;
20142;SDS011;10509;46.476;7.134;2023-06-22T13:31:08;5.05;;;2.00;;
20142;SDS011;10509;46.476;7.134;2023-06-22T13:33:34;5.15;;;2.30;;
20142;SDS011;10509;46.476;7.134;2023-06-22T13:36:00;8.38;;;2.85;;
20142;SDS011;10509;46.476;7.134;2023-06-22T13:38:28;7.90;;;2.45;;
20142;SDS011;10509;46.476;7.134;2023-06-22T13:40:55;10.18;;;2.85;;
20142;SDS011;10509;46.476;7.134;2023-06-22T13:43:23;8.25;;;2.53;;
20142;SDS011;10509;46.476;7.134;2023-06-22T13:45:49;6.20;;;2.25;;
20142;SDS011;10509;46.476;7.134;2023-06-22T13:48:15;4.97;;;2.50;;
20142;SDS011;10509;46.476;7.134;2023-06-22T13:50:41;9.45;;;2.90;;
20142;SDS011;10509;46.476;7.134;2023-06-22T13:53:07;7.40;;;2.80;;
20142;SDS011;10509;46.476;7.134;2023-06-22T13:55:33;6.43;;;2.80;;
20142;SDS011;10509;46.476;7.134;2023-06-22T13:57:59;6.03;;;2.57;;
20142;SDS011;10509;46.476;7.134;2023-06-22T14:00:25;5.63;;;2.50;;
20142;SDS011;10509;46.476;7.134;2023-06-22T14:02:52;7.40;;;2.50;;
20142;SDS011;10509;46.476;7.134;2023-06-22T14:05:19;5.43;;;2.10;;
20142;SDS011;10509;46.476;7.134;2023-06-22T14:07:45;8.97;;;2.83;;
20142;SDS011;10509;46.476;7.134;2023-06-22T14:10:11;4.05;;;2.30;;
20142;SDS011;10509;46.476;7.134;2023-06-22T14:12:37;4.15;;;1.83;;
20142;SDS011;10509;46.476;7.134;2023-06-22T14:15:03;6.88;;;2.65;;
20142;SDS011;10509;46.476;7.134;2023-06-22T14:17:29;4.20;;;2.00;;
20142;SDS011;10509;46.476;7.134;2023-06-22T14:19:55;4.60;;;2.00;;
20142;SDS011;10509;46.476;7.134;2023-06-22T14:22:22;3.53;;;2.03;;
20142;SDS011;10509;46.476;7.134;2023-06-22T14:24:48;7.82;;;2.75;;
20142;SDS011;10509;46.476;7.134;2023-06-22T14:27:14;7.15;;;2.38;;
20142;SDS011;10509;46.476;7.134;2023-06-22T14:29:40;4.90;;;2.83;;
20142;SDS011;10509;46.476;7.134;2023-06-22T14:32:06;4.22;;;2.15;;
20142;SDS011;10509;46.476;7.134;2023-06-22T14:34:33;2.40;;;1.23;;
20142;SDS011;10509;46.476;7.134;2023-06-22T14:37:01;5.43;;;2.20;;
20142;SDS011;10509;46.476;7.134;2023-06-22T14:39:27;8.00;;;1.97;;
20142;SDS011;10509;46.476;7.134;2023-06-22T14:41:53;5.60;;;1.80;;